Time;durP1;ratioP1;P1;durP2;ratioP2;P2;SDS_P1;SDS_P2;PMS_P1;PMS_P2;Temp;Humidity;BMP_temperature;BMP_pressure;BME280_temperature;BME280_humidity;BME280_pressure;Samples;Min_cycle;Max_cycle;Signal;HPM_P1;HPM_P2
2021/09/11 00:01:08;;;;;;;23.03;18.40;;;;;;;;;;5016122;28;20132;-85
2021/09/11 00:03:34;;;;;;;23.30;20.83;;;;;;;;;;5014046;28;20021;-85
2021/09/11 00:05:59;;;;;;;23.25;20.92;;;;;;;;;;5014259;28;20025;-85
2021/09/11 00:08:24;;;;;;;22.83;20.45;;;;;;;;;;5014450;28;20037;-85
2021/09/11 00:10:50;;;;;;;41.75;28.30;;;;;;;;;;5014087;28;20033;-85
2021/09/11 00:13:15;;;;;;;42.10;30.13;;;;;;;;;;5032184;28;20060;-85
2021/09/11 00:15:41;;;;;;;32.83;25.83;;;;;;;;;;5014556;28;20455;-85
2021/09/11 00:18:06;;;;;;;44.47;29.17;;;;;;;;;;5013753;28;20029;-85
2021/09/11 00:20:34;;;;;;;25.40;22.77;;;;;;;;;;5034217;28;20024;-85
2021/09/11 00:23:00;;;;;;;55.10;34.13;;;;;;;;;;5013977;28;20813;-85
2021/09/11 00:25:26;;;;;;;27.00;23.15;;;;;;;;;;5031812;28;20025;-85
2021/09/11 00:27:51;;;;;;;46.42;32.80;;;;;;;;;;5010067;28;20056;-85
2021/09/11 00:30:17;;;;;;;49.10;31.70;;;;;;;;;;5010969;28;20117;-85
2021/09/11 00:32:45;;;;;;;59.30;35.20;;;;;;;;;;5011591;28;20026;-84
2021/09/11 00:35:11;;;;;;;116.28;40.83;;;;;;;;;;5011035;28;20040;-85
2021/09/11 00:37:36;;;;;;;61.97;33.80;;;;;;;;;;5010914;28;20030;-85
2021/09/11 00:40:02;;;;;;;57.50;33.60;;;;;;;;;;5017324;28;20072;-85
2021/09/11 00:42:27;;;;;;;56.15;32.65;;;;;;;;;;5012136;28;20450;-85
2021/09/11 00:44:53;;;;;;;68.65;36.15;;;;;;;;;;5012210;28;20088;-85
2021/09/11 00:47:18;;;;;;;70.05;38.90;;;;;;;;;;5010195;28;20022;-86
2021/09/11 00:49:43;;;;;;;86.65;42.33;;;;;;;;;;5011825;28;20022;-85
2021/09/11 00:52:11;;;;;;;112.57;50.27;;;;;;;;;;5010143;28;20112;-85
2021/09/11 00:54:36;;;;;;;72.15;39.97;;;;;;;;;;5011837;28;20253;-85
2021/09/11 00:57:01;;;;;;;145.23;56.55;;;;;;;;;;5016932;28;20020;-85
2021/09/11 00:59:27;;;;;;;107.32;45.33;;;;;;;;;;5010103;28;20556;-85
2021/09/11 01:01:53;;;;;;;83.17;43.63;;;;;;;;;;5010169;28;20112;-85
2021/09/11 01:04:18;;;;;;;137.63;55.00;;;;;;;;;;5010323;28;20307;-84
2021/09/11 01:06:43;;;;;;;134.68;54.78;;;;;;;;;;5010021;28;20022;-85
2021/09/11 01:09:09;;;;;;;161.68;56.53;;;;;;;;;;5010406;28;20034;-85
2021/09/11 01:11:34;;;;;;;149.63;56.45;;;;;;;;;;5011074;28;20080;-85
2021/09/11 01:13:59;;;;;;;135.00;53.95;;;;;;;;;;5011716;28;20033;-85
2021/09/11 01:16:25;;;;;;;100.83;45.43;;;;;;;;;;5010102;28;20080;-85
2021/09/11 01:18:50;;;;;;;95.15;45.67;;;;;;;;;;5009862;28;20037;-85
2021/09/11 01:21:17;;;;;;;85.80;44.42;;;;;;;;;;5011658;28;20054;-85
2021/09/11 01:23:42;;;;;;;125.90;52.72;;;;;;;;;;5009690;28;20022;-85
2021/09/11 01:26:07;;;;;;;103.85;45.00;;;;;;;;;;5010943;28;20018;-85
2021/09/11 01:28:33;;;;;;;93.15;44.15;;;;;;;;;;5011375;28;20410;-85
2021/09/11 01:30:58;;;;;;;80.05;43.28;;;;;;;;;;5009635;28;20132;-85
2021/09/11 01:33:24;;;;;;;83.30;41.77;;;;;;;;;;5009514;28;20429;-85
2021/09/11 01:35:52;;;;;;;154.50;56.05;;;;;;;;;;5009741;28;20269;-85
2021/09/11 01:38:20;;;;;;;145.57;52.60;;;;;;;;;;5009498;28;20029;-85
2021/09/11 01:40:45;;;;;;;125.40;47.63;;;;;;;;;;5009632;28;20025;-85
2021/09/11 01:43:11;;;;;;;126.23;49.37;;;;;;;;;;5010780;28;20022;-85
2021/09/11 01:45:36;;;;;;;120.63;46.43;;;;;;;;;;5013247;28;20596;-85
2021/09/11 01:48:01;;;;;;;131.25;48.92;;;;;;;;;;5010048;28;20614;-85
2021/09/11 01:50:27;;;;;;;123.22;49.92;;;;;;;;;;5010533;28;20030;-84
2021/09/11 01:52:52;;;;;;;130.18;50.58;;;;;;;;;;5013119;28;20030;-85
2021/09/11 01:55:20;;;;;;;102.53;43.47;;;;;;;;;;5014872;28;20199;-85
2021/09/11 01:57:46;;;;;;;113.85;48.10;;;;;;;;;;5013523;28;20370;-85
2021/09/11 02:00:12;;;;;;;129.95;51.05;;;;;;;;;;5014730;28;20037;-85
2021/09/11 02:02:38;;;;;;;166.80;56.10;;;;;;;;;;5013382;28;20045;-85
2021/09/11 02:05:04;;;;;;;114.95;48.75;;;;;;;;;;5015935;28;20026;-85
2021/09/11 02:07:29;;;;;;;137.20;51.45;;;;;;;;;;5013127;28;20021;-85
2021/09/11 02:09:54;;;;;;;148.63;54.07;;;;;;;;;;5013338;28;20121;-85
2021/09/11 02:12:20;;;;;;;120.20;49.60;;;;;;;;;;5014423;28;20280;-85
2021/09/11 02:14:45;;;;;;;182.48;59.20;;;;;;;;;;5013598;28;20031;-85
2021/09/11 02:17:10;;;;;;;170.07;56.88;;;;;;;;;;5012959;28;20109;-84
2021/09/11 02:19:35;;;;;;;110.67;47.60;;;;;;;;;;5014413;28;20515;-85
2021/09/11 02:22:02;;;;;;;102.67;44.00;;;;;;;;;;5014923;28;20265;-85
2021/09/11 02:24:29;;;;;;;132.57;49.58;;;;;;;;;;5017233;28;20744;-85
2021/09/11 02:26:54;;;;;;;141.73;51.17;;;;;;;;;;5013398;28;20021;-85
2021/09/11 02:29:19;;;;;;;132.57;52.17;;;;;;;;;;5016380;28;20086;-85
2021/09/11 02:31:44;;;;;;;183.20;55.33;;;;;;;;;;5016271;28;20057;-85
2021/09/11 02:34:10;;;;;;;108.50;45.92;;;;;;;;;;5016474;28;20271;-85
2021/09/11 02:36:35;;;;;;;150.30;55.03;;;;;;;;;;5033879;28;20018;-84
2021/09/11 02:39:00;;;;;;;199.03;61.00;;;;;;;;;;5034997;28;20037;-85
2021/09/11 02:41:29;;;;;;;239.63;65.07;;;;;;;;;;5015678;28;20477;-85
2021/09/11 02:43:54;;;;;;;127.88;50.17;;;;;;;;;;5016312;28;20045;-84
2021/09/11 02:46:19;;;;;;;139.53;51.07;;;;;;;;;;5015484;28;20061;-85
2021/09/11 02:48:47;;;;;;;133.97;51.27;;;;;;;;;;5033677;28;20339;-85
2021/09/11 02:51:12;;;;;;;147.07;53.65;;;;;;;;;;5033484;28;20296;-85
2021/09/11 02:53:37;;;;;;;141.95;50.80;;;;;;;;;;5033284;28;20056;-85
2021/09/11 02:56:03;;;;;;;167.15;54.70;;;;;;;;;;5018693;28;20126;-85
2021/09/11 02:58:28;;;;;;;182.38;59.72;;;;;;;;;;5015132;28;20025;-85
2021/09/11 03:00:53;;;;;;;216.43;62.22;;;;;;;;;;5016073;28;20128;-85
2021/09/11 03:03:19;;;;;;;191.05;60.28;;;;;;;;;;5014470;28;20018;-85
2021/09/11 03:05:44;;;;;;;173.50;56.55;;;;;;;;;;5033543;28;20499;-85
2021/09/11 03:08:09;;;;;;;244.73;65.00;;;;;;;;;;5015397;28;20041;-85
2021/09/11 03:10:34;;;;;;;160.55;53.63;;;;;;;;;;5015666;28;20115;-85
2021/09/11 03:13:00;;;;;;;160.63;53.85;;;;;;;;;;5017055;28;20036;-85
2021/09/11 03:15:25;;;;;;;186.30;58.53;;;;;;;;;;5015358;28;20100;-85
2021/09/11 03:17:50;;;;;;;135.38;51.90;;;;;;;;;;5015306;28;20079;-85
2021/09/11 03:20:16;;;;;;;137.93;49.63;;;;;;;;;;5015166;28;20025;-85
2021/09/11 03:22:41;;;;;;;182.18;57.10;;;;;;;;;;5015172;28;20359;-85
2021/09/11 03:25:06;;;;;;;136.30;52.87;;;;;;;;;;5015241;28;20026;-85
2021/09/11 03:27:32;;;;;;;180.40;60.70;;;;;;;;;;5032623;28;20288;-85
2021/09/11 03:29:57;;;;;;;145.67;52.83;;;;;;;;;;5019067;28;20052;-84
2021/09/11 03:32:22;;;;;;;176.67;58.87;;;;;;;;;;5014918;28;20343;-85
2021/09/11 03:34:48;;;;;;;173.57;59.33;;;;;;;;;;5015070;28;20029;-85
2021/09/11 03:37:13;;;;;;;164.85;57.05;;;;;;;;;;5014937;28;20057;-85
2021/09/11 03:39:38;;;;;;;201.02;65.45;;;;;;;;;;5014877;28;20052;-85
2021/09/11 03:42:04;;;;;;;162.05;57.30;;;;;;;;;;5014818;28;20021;-85
2021/09/11 03:44:29;;;;;;;175.00;58.95;;;;;;;;;;5032764;28;20037;-85
2021/09/11 03:46:54;;;;;;;159.52;58.95;;;;;;;;;;5016053;28;20492;-85
2021/09/11 03:49:19;;;;;;;229.57;69.60;;;;;;;;;;5014692;28;20037;-85
2021/09/11 03:51:45;;;;;;;206.75;64.68;;;;;;;;;;5014815;28;20347;-85
2021/09/11 03:54:10;;;;;;;335.50;80.97;;;;;;;;;;5032629;28;20055;-85
2021/09/11 03:56:36;;;;;;;226.75;65.60;;;;;;;;;;5032318;28;20030;-85
2021/09/11 03:59:01;;;;;;;390.92;87.68;;;;;;;;;;5032131;28;20068;-86
2021/09/11 04:01:29;;;;;;;190.18;63.53;;;;;;;;;;5035057;28;20029;-86
2021/09/11 04:03:54;;;;;;;197.90;67.05;;;;;;;;;;5032368;28;20055;-85
2021/09/11 04:06:19;;;;;;;203.10;63.05;;;;;;;;;;5014358;28;20128;-84
2021/09/11 04:08:45;;;;;;;186.73;62.50;;;;;;;;;;5032176;28;20025;-85
2021/09/11 04:11:10;;;;;;;270.40;73.57;;;;;;;;;;5032095;28;20265;-85
2021/09/11 04:13:36;;;;;;;163.68;61.47;;;;;;;;;;5031909;28;20032;-85
2021/09/11 04:16:01;;;;;;;212.17;67.37;;;;;;;;;;5014603;28;20120;-85
2021/09/11 04:18:26;;;;;;;265.10;73.53;;;;;;;;;;5014445;28;20028;-84
2021/09/11 04:20:52;;;;;;;238.07;72.93;;;;;;;;;;5015232;28;20064;-85
2021/09/11 04:23:18;;;;;;;183.20;65.15;;;;;;;;;;5013887;28;20025;-85
2021/09/11 04:25:43;;;;;;;171.52;61.25;;;;;;;;;;5013939;28;20021;-85
2021/09/11 04:28:09;;;;;;;206.82;70.93;;;;;;;;;;5013832;28;20049;-85
2021/09/11 04:30:34;;;;;;;205.02;68.15;;;;;;;;;;5014035;28;20029;-85
2021/09/11 04:32:59;;;;;;;231.50;72.63;;;;;;;;;;5032047;28;20033;-85
2021/09/11 04:35:25;;;;;;;181.60;62.97;;;;;;;;;;5014076;28;20031;-85
2021/09/11 04:37:50;;;;;;;220.53;69.27;;;;;;;;;;5033714;28;20531;-85
2021/09/11 04:40:15;;;;;;;173.73;62.77;;;;;;;;;;5031775;28;20057;-85
2021/09/11 04:42:41;;;;;;;159.77;61.97;;;;;;;;;;5013321;28;20378;-85
2021/09/11 04:45:06;;;;;;;188.40;68.15;;;;;;;;;;5013901;28;20045;-85
2021/09/11 04:47:32;;;;;;;239.10;72.38;;;;;;;;;;5031739;28;20028;-85
2021/09/11 04:49:57;;;;;;;151.23;60.03;;;;;;;;;;5013947;28;20022;-85
2021/09/11 04:52:22;;;;;;;128.18;57.00;;;;;;;;;;5031336;28;20322;-85
2021/09/11 04:54:48;;;;;;;156.77;60.22;;;;;;;;;;5013554;28;20464;-85
2021/09/11 04:57:13;;;;;;;149.25;60.17;;;;;;;;;;5032085;28;20036;-85
2021/09/11 04:59:38;;;;;;;145.60;59.85;;;;;;;;;;5013924;28;20117;-85
2021/09/11 05:02:04;;;;;;;221.40;69.53;;;;;;;;;;5013179;28;20035;-85
2021/09/11 05:04:29;;;;;;;174.90;65.68;;;;;;;;;;5013947;28;20048;-85
2021/09/11 05:06:54;;;;;;;179.32;65.95;;;;;;;;;;5013734;28;20025;-85
2021/09/11 05:09:20;;;;;;;140.40;57.10;;;;;;;;;;5014452;28;20075;-85
2021/09/11 05:11:46;;;;;;;191.02;65.10;;;;;;;;;;5013142;28;20079;-85
2021/09/11 05:14:12;;;;;;;163.50;61.70;;;;;;;;;;5017007;28;20029;-85
2021/09/11 05:16:37;;;;;;;148.85;58.38;;;;;;;;;;5013508;28;20024;-85
2021/09/11 05:19:02;;;;;;;181.32;63.58;;;;;;;;;;5030775;28;20134;-85
2021/09/11 05:21:28;;;;;;;125.10;54.10;;;;;;;;;;5031212;28;20477;-84
2021/09/11 05:23:53;;;;;;;188.50;64.10;;;;;;;;;;5013808;28;20018;-85
2021/09/11 05:26:18;;;;;;;207.98;66.07;;;;;;;;;;5012790;28;20402;-85
2021/09/11 05:28:43;;;;;;;118.18;55.75;;;;;;;;;;5031005;28;20045;-85
2021/09/11 05:31:09;;;;;;;130.67;54.23;;;;;;;;;;5034072;28;20106;-85
2021/09/11 05:33:34;;;;;;;138.20;56.07;;;;;;;;;;5013242;28;20257;-84
2021/09/11 05:35:59;;;;;;;171.30;61.17;;;;;;;;;;5013393;28;20311;-84
2021/09/11 05:38:24;;;;;;;105.67;50.43;;;;;;;;;;5030908;28;20352;-84
2021/09/11 05:40:50;;;;;;;189.90;62.97;;;;;;;;;;5030897;28;20343;-84
2021/09/11 05:43:15;;;;;;;170.13;60.90;;;;;;;;;;5013086;28;20040;-85
2021/09/11 05:45:41;;;;;;;143.73;58.10;;;;;;;;;;5031432;28;20049;-84
2021/09/11 05:48:06;;;;;;;108.05;50.83;;;;;;;;;;5016475;28;20071;-85
2021/09/11 05:50:32;;;;;;;103.50;48.40;;;;;;;;;;5013194;28;20029;-85
2021/09/11 05:52:57;;;;;;;135.75;54.05;;;;;;;;;;5031714;28;20025;-85
2021/09/11 05:55:22;;;;;;;105.40;48.97;;;;;;;;;;5013121;28;20031;-84
2021/09/11 05:57:48;;;;;;;204.43;62.28;;;;;;;;;;5013360;28;20029;-85
2021/09/11 06:00:15;;;;;;;86.40;44.00;;;;;;;;;;5013386;28;20071;-85
2021/09/11 06:02:41;;;;;;;145.80;55.78;;;;;;;;;;5033553;28;20032;-85
2021/09/11 06:05:06;;;;;;;141.73;55.97;;;;;;;;;;5031277;28;20017;-85
2021/09/11 06:07:32;;;;;;;147.88;57.58;;;;;;;;;;5013148;28;20013;-85
2021/09/11 06:09:59;;;;;;;132.60;53.63;;;;;;;;;;5030730;28;20100;-85
2021/09/11 06:12:25;;;;;;;97.35;47.38;;;;;;;;;;5012252;28;20025;-85
2021/09/11 06:14:50;;;;;;;131.20;55.40;;;;;;;;;;5030086;28;20096;-85
2021/09/11 06:17:16;;;;;;;177.60;62.63;;;;;;;;;;5012148;28;20026;-85
2021/09/11 06:19:42;;;;;;;128.38;54.67;;;;;;;;;;5032650;28;20033;-85
2021/09/11 06:22:11;;;;;;;147.35;56.50;;;;;;;;;;5030059;28;20107;-85
2021/09/11 06:24:37;;;;;;;120.50;54.92;;;;;;;;;;5012523;28;20040;-85
2021/09/11 06:27:02;;;;;;;97.85;50.17;;;;;;;;;;5012217;28;20028;-84
2021/09/11 06:29:28;;;;;;;131.23;54.17;;;;;;;;;;5012756;28;20029;-85
2021/09/11 06:31:53;;;;;;;100.00;51.03;;;;;;;;;;5012500;28;20032;-85
2021/09/11 06:34:18;;;;;;;154.25;60.83;;;;;;;;;;5012155;28;20063;-85
2021/09/11 06:36:43;;;;;;;137.05;55.67;;;;;;;;;;5017642;28;20093;-85
2021/09/11 06:39:09;;;;;;;108.80;50.85;;;;;;;;;;5033747;28;20037;-85
2021/09/11 06:41:34;;;;;;;154.20;61.47;;;;;;;;;;5033480;28;20083;-85
2021/09/11 06:43:59;;;;;;;87.97;48.00;;;;;;;;;;5015593;28;20289;-85
2021/09/11 06:46:25;;;;;;;93.20;48.80;;;;;;;;;;5015700;28;20260;-85
2021/09/11 06:48:50;;;;;;;102.75;50.83;;;;;;;;;;5015486;28;20120;-85
2021/09/11 06:51:15;;;;;;;83.65;46.53;;;;;;;;;;5015752;28;20035;-85
2021/09/11 06:53:40;;;;;;;82.00;44.97;;;;;;;;;;5016053;28;20021;-85
2021/09/11 06:56:06;;;;;;;85.63;47.67;;;;;;;;;;5017355;28;20030;-85
2021/09/11 06:58:31;;;;;;;111.70;52.28;;;;;;;;;;5015236;28;20368;-85
2021/09/11 07:00:57;;;;;;;187.82;64.57;;;;;;;;;;5033342;28;20057;-85
2021/09/11 07:03:22;;;;;;;76.90;46.45;;;;;;;;;;5014914;28;20431;-86
2021/09/11 07:05:48;;;;;;;84.35;47.50;;;;;;;;;;5033283;28;20026;-85
2021/09/11 07:08:13;;;;;;;110.38;55.08;;;;;;;;;;5015393;28;20025;-85
2021/09/11 07:10:38;;;;;;;151.90;60.53;;;;;;;;;;5033295;28;20025;-85
2021/09/11 07:13:03;;;;;;;83.60;47.27;;;;;;;;;;5033206;28;20033;-86
2021/09/11 07:15:29;;;;;;;89.95;48.58;;;;;;;;;;5015566;28;20727;-85
2021/09/11 07:17:55;;;;;;;102.95;53.05;;;;;;;;;;5014911;28;20025;-85
2021/09/11 07:20:21;;;;;;;76.43;47.00;;;;;;;;;;5015352;28;20030;-85
2021/09/11 07:22:46;;;;;;;97.45;50.85;;;;;;;;;;5015326;28;20017;-85
2021/09/11 07:25:11;;;;;;;105.10;52.50;;;;;;;;;;5033370;28;20381;-85
2021/09/11 07:27:37;;;;;;;86.78;48.03;;;;;;;;;;5014837;28;20045;-85
2021/09/11 07:30:02;;;;;;;79.95;46.38;;;;;;;;;;5015675;28;20026;-85
2021/09/11 07:32:28;;;;;;;97.97;51.08;;;;;;;;;;5014740;28;20030;-84
2021/09/11 07:34:53;;;;;;;75.22;46.05;;;;;;;;;;5015015;28;20421;-85
2021/09/11 07:37:18;;;;;;;89.10;49.40;;;;;;;;;;5032562;28;20047;-85
2021/09/11 07:39:44;;;;;;;82.60;47.87;;;;;;;;;;5014594;28;20071;-85
2021/09/11 07:42:10;;;;;;;96.38;50.92;;;;;;;;;;5014434;28;20117;-85
2021/09/11 07:44:35;;;;;;;95.95;51.42;;;;;;;;;;5032252;28;20100;-85
2021/09/11 07:47:00;;;;;;;64.30;42.92;;;;;;;;;;5017569;28;20088;-85
2021/09/11 07:49:26;;;;;;;65.47;42.47;;;;;;;;;;5013873;28;20025;-85
2021/09/11 07:51:51;;;;;;;64.53;42.70;;;;;;;;;;5014146;28;20555;-85
2021/09/11 07:54:19;;;;;;;64.93;42.00;;;;;;;;;;5032437;28;20053;-86
2021/09/11 07:56:45;;;;;;;61.35;39.95;;;;;;;;;;5032017;28;20056;-85
2021/09/11 07:59:10;;;;;;;52.63;35.92;;;;;;;;;;5014086;28;20068;-85
2021/09/11 08:01:35;;;;;;;53.83;37.30;;;;;;;;;;5031960;28;20029;-85
2021/09/11 08:04:00;;;;;;;56.08;37.13;;;;;;;;;;5013996;28;20256;-85
2021/09/11 08:06:26;;;;;;;49.40;35.00;;;;;;;;;;5013993;28;20025;-85
2021/09/11 08:08:51;;;;;;;54.05;37.38;;;;;;;;;;5031868;28;20264;-85
2021/09/11 08:11:17;;;;;;;62.03;39.17;;;;;;;;;;5013904;28;20437;-85
2021/09/11 08:13:43;;;;;;;63.65;40.17;;;;;;;;;;5031468;28;20028;-85
2021/09/11 08:16:08;;;;;;;52.00;36.38;;;;;;;;;;5013753;28;20025;-85
2021/09/11 08:18:33;;;;;;;46.55;35.33;;;;;;;;;;5031586;28;20025;-85
2021/09/11 08:20:58;;;;;;;55.03;35.72;;;;;;;;;;5015661;28;20060;-86
2021/09/11 08:23:24;;;;;;;50.70;35.17;;;;;;;;;;5013574;28;20029;-85
2021/09/11 08:25:50;;;;;;;48.72;34.45;;;;;;;;;;5031609;28;20267;-85
2021/09/11 08:28:15;;;;;;;51.83;35.92;;;;;;;;;;5013733;28;20045;-85
2021/09/11 08:30:41;;;;;;;39.45;29.98;;;;;;;;;;5013533;28;20025;-86
2021/09/11 08:33:06;;;;;;;49.50;33.17;;;;;;;;;;5013398;28;20021;-85
2021/09/11 08:35:31;;;;;;;41.17;32.15;;;;;;;;;;5022860;28;20017;-85
2021/09/11 08:37:57;;;;;;;44.03;32.67;;;;;;;;;;5011986;28;20022;-85
2021/09/11 08:40:22;;;;;;;36.23;28.17;;;;;;;;;;5003962;28;20326;-85
2021/09/11 08:42:48;;;;;;;40.80;30.13;;;;;;;;;;5009999;28;20061;-85
2021/09/11 08:45:14;;;;;;;40.28;30.30;;;;;;;;;;5010069;28;20331;-85
2021/09/11 08:47:46;;;;;;;49.67;35.60;;;;;;;;;;4994604;28;20026;-85
2021/09/11 08:50:12;;;;;;;44.45;31.75;;;;;;;;;;5012293;28;20075;-85
2021/09/11 08:52:39;;;;;;;38.45;30.30;;;;;;;;;;5027097;28;20734;-85
2021/09/11 08:55:04;;;;;;;36.72;29.20;;;;;;;;;;5006054;28;20091;-85
2021/09/11 08:57:30;;;;;;;35.65;27.45;;;;;;;;;;4998945;28;20029;-85
2021/09/11 08:59:55;;;;;;;32.60;28.33;;;;;;;;;;5000687;28;20056;-85
2021/09/11 09:02:22;;;;;;;32.40;26.98;;;;;;;;;;5012284;28;20025;-85
2021/09/11 09:04:50;;;;;;;29.33;26.10;;;;;;;;;;5012809;28;20132;-85
2021/09/11 09:07:32;;;;;;;29.33;24.58;;;;;;;;;;5010664;28;20025;-85
2021/09/11 09:09:58;;;;;;;30.92;26.00;;;;;;;;;;4992124;28;20033;-85
2021/09/11 09:12:23;;;;;;;33.53;26.67;;;;;;;;;;5017766;28;20013;-85
2021/09/11 09:14:59;;;;;;;30.80;23.60;;;;;;;;;;5012837;28;20032;-84
2021/09/11 09:17:38;;;;;;;29.40;23.15;;;;;;;;;;5009241;28;20255;-83
2021/09/11 09:20:10;;;;;;;25.35;22.60;;;;;;;;;;5011709;28;20040;-83
2021/09/11 09:22:35;;;;;;;32.15;22.70;;;;;;;;;;5011972;28;20031;-84
2021/09/11 09:25:00;;;;;;;30.60;24.50;;;;;;;;;;5011524;28;20029;-83
2021/09/11 09:27:25;;;;;;;25.43;22.80;;;;;;;;;;5010920;28;20056;-83
2021/09/11 09:29:59;;;;;;;25.60;22.90;;;;;;;;;;5020659;28;20048;-83
2021/09/11 09:32:34;;;;;;;24.50;21.52;;;;;;;;;;5015900;28;20256;-84
2021/09/11 09:34:59;;;;;;;24.45;21.85;;;;;;;;;;5022507;28;20468;-84
2021/09/11 09:37:24;;;;;;;25.53;22.97;;;;;;;;;;5028598;28;20022;-83
2021/09/11 09:39:50;;;;;;;32.43;23.00;;;;;;;;;;5011600;28;20265;-83
2021/09/11 09:42:16;;;;;;;22.83;19.63;;;;;;;;;;5028739;28;20384;-83
2021/09/11 09:44:46;;;;;;;21.67;19.48;;;;;;;;;;5010966;28;20021;-84
2021/09/11 09:47:13;;;;;;;21.50;19.05;;;;;;;;;;5028501;28;20099;-83
2021/09/11 09:49:38;;;;;;;24.80;20.58;;;;;;;;;;5011465;28;20045;-83
2021/09/11 09:52:03;;;;;;;25.58;20.83;;;;;;;;;;5010730;28;20068;-83
2021/09/11 09:54:29;;;;;;;23.60;20.42;;;;;;;;;;5028661;28;20033;-83
2021/09/11 09:56:54;;;;;;;24.52;21.88;;;;;;;;;;5011150;28;20410;-84
2021/09/11 09:59:19;;;;;;;23.45;21.00;;;;;;;;;;5011234;28;20025;-83
2021/09/11 10:01:49;;;;;;;26.88;23.08;;;;;;;;;;5028991;28;20017;-87
2021/09/11 10:04:16;;;;;;;23.70;20.02;;;;;;;;;;5029363;28;20026;-86
2021/09/11 10:06:43;;;;;;;19.77;17.77;;;;;;;;;;5026116;28;20425;-85
2021/09/11 10:09:10;;;;;;;22.75;18.88;;;;;;;;;;4991203;28;20036;-85
2021/09/11 10:11:37;;;;;;;22.98;18.75;;;;;;;;;;5028125;28;20087;-84
2021/09/11 10:14:03;;;;;;;18.70;16.63;;;;;;;;;;5014866;28;20032;-84
2021/09/11 10:16:33;;;;;;;20.77;16.70;;;;;;;;;;5014895;28;20028;-83
2021/09/11 10:18:58;;;;;;;16.42;14.18;;;;;;;;;;5015440;28;20056;-84
2021/09/11 10:21:44;;;;;;;17.65;15.75;;;;;;;;;;5032755;28;20056;-84
2021/09/11 10:24:13;;;;;;;17.38;13.43;;;;;;;;;;5014982;28;20385;-84
2021/09/11 10:26:41;;;;;;;16.30;13.10;;;;;;;;;;5032794;28;20432;-84
2021/09/11 10:29:25;;;;;;;15.15;12.15;;;;;;;;;;5030236;28;20064;-84
2021/09/11 10:31:57;;;;;;;17.40;13.60;;;;;;;;;;5013029;28;20033;-84
2021/09/11 10:34:42;;;;;;;16.02;13.02;;;;;;;;;;5003327;28;20080;-85
2021/09/11 10:37:08;;;;;;;17.65;12.98;;;;;;;;;;5014981;28;20029;-85
2021/09/11 10:39:33;;;;;;;16.27;12.73;;;;;;;;;;5032561;28;20025;-85
2021/09/11 10:42:03;;;;;;;14.67;12.73;;;;;;;;;;5032435;28;20520;-85
2021/09/11 10:44:28;;;;;;;16.13;12.05;;;;;;;;;;5014780;28;20609;-84
2021/09/11 10:46:54;;;;;;;17.53;13.20;;;;;;;;;;5014780;28;20025;-83
2021/09/11 10:49:31;;;;;;;16.48;13.40;;;;;;;;;;5032926;28;20037;-84
2021/09/11 10:52:02;;;;;;;17.35;13.32;;;;;;;;;;5032988;28;20060;-84
2021/09/11 10:54:30;;;;;;;15.75;12.98;;;;;;;;;;5034829;28;20492;-84
2021/09/11 10:56:58;;;;;;;15.65;12.07;;;;;;;;;;5021131;28;20116;-84
2021/09/11 10:59:23;;;;;;;15.05;11.82;;;;;;;;;;5036834;28;20496;-84
2021/09/11 11:01:55;;;;;;;13.00;10.13;;;;;;;;;;5035416;28;20022;-85
2021/09/11 11:04:23;;;;;;;10.30;8.88;;;;;;;;;;5016882;28;20028;-84
2021/09/11 11:06:50;;;;;;;11.60;8.95;;;;;;;;;;5033416;28;20052;-84
2021/09/11 11:09:18;;;;;;;11.27;9.27;;;;;;;;;;5014588;28;20036;-84
2021/09/11 11:11:43;;;;;;;13.88;8.80;;;;;;;;;;5014895;28;20041;-84
2021/09/11 11:14:08;;;;;;;11.35;8.38;;;;;;;;;;5032646;28;20363;-84
2021/09/11 11:16:43;;;;;;;11.53;8.87;;;;;;;;;;5014993;28;20029;-84
2021/09/11 11:19:08;;;;;;;12.88;8.68;;;;;;;;;;5024746;28;20632;-84
2021/09/11 11:21:36;;;;;;;11.13;7.28;;;;;;;;;;4997814;28;20076;-84
2021/09/11 11:24:01;;;;;;;9.75;8.23;;;;;;;;;;4995699;28;20295;-84
2021/09/11 11:26:27;;;;;;;13.05;8.40;;;;;;;;;;5014167;28;20030;-83
2021/09/11 11:28:52;;;;;;;12.63;9.20;;;;;;;;;;4995866;28;20054;-84
2021/09/11 11:31:17;;;;;;;10.67;9.03;;;;;;;;;;4995651;28;20276;-84
2021/09/11 11:33:44;;;;;;;12.10;9.18;;;;;;;;;;4994707;28;20265;-84
2021/09/11 11:36:09;;;;;;;14.90;9.65;;;;;;;;;;4995911;28;20029;-84
2021/09/11 11:38:34;;;;;;;11.57;8.90;;;;;;;;;;4996531;28;20034;-84
2021/09/11 11:41:03;;;;;;;15.67;9.70;;;;;;;;;;5015449;28;20113;-84
2021/09/11 11:43:33;;;;;;;16.30;10.48;;;;;;;;;;4995054;28;20628;-84
2021/09/11 11:45:58;;;;;;;14.68;12.68;;;;;;;;;;5013854;28;20021;-84
2021/09/11 11:48:24;;;;;;;13.57;11.98;;;;;;;;;;4996318;28;20022;-83
2021/09/11 11:50:49;;;;;;;17.65;11.45;;;;;;;;;;4994891;28;20049;-84
2021/09/11 11:53:15;;;;;;;11.52;10.35;;;;;;;;;;5014273;28;20045;-84
2021/09/11 11:55:44;;;;;;;14.60;9.38;;;;;;;;;;4996269;28;20520;-84
2021/09/11 11:58:17;;;;;;;14.18;8.90;;;;;;;;;;4995973;28;20045;-84
2021/09/11 12:00:50;;;;;;;12.68;9.40;;;;;;;;;;4996862;28;20437;-84
2021/09/11 12:03:31;;;;;;;14.35;10.48;;;;;;;;;;4996286;28;20029;-84
2021/09/11 12:05:57;;;;;;;11.50;10.02;;;;;;;;;;5012629;28;20433;-84
2021/09/11 12:08:23;;;;;;;17.25;13.05;;;;;;;;;;4995910;28;20058;-83
2021/09/11 12:10:51;;;;;;;22.33;15.05;;;;;;;;;;4996261;28;20026;-83
2021/09/11 12:13:17;;;;;;;20.70;17.13;;;;;;;;;;5015673;28;20029;-84
2021/09/11 12:15:43;;;;;;;25.00;18.33;;;;;;;;;;4995858;28;20037;-83
2021/09/11 12:18:12;;;;;;;28.58;18.83;;;;;;;;;;4995228;28;20025;-83
2021/09/11 12:20:40;;;;;;;22.55;20.15;;;;;;;;;;4996261;28;20045;-84
2021/09/11 12:23:10;;;;;;;27.77;21.35;;;;;;;;;;5014690;28;20494;-83
2021/09/11 12:25:48;;;;;;;30.70;21.30;;;;;;;;;;5012825;28;20018;-83
2021/09/11 12:28:32;;;;;;;28.27;20.58;;;;;;;;;;4995195;28;20230;-84
2021/09/11 12:30:58;;;;;;;25.45;19.98;;;;;;;;;;4996267;28;20022;-83
2021/09/11 12:33:24;;;;;;;25.42;21.90;;;;;;;;;;5013742;28;20037;-84
2021/09/11 12:35:49;;;;;;;25.98;20.83;;;;;;;;;;4996246;28;20493;-83
2021/09/11 12:38:15;;;;;;;26.70;21.00;;;;;;;;;;5012007;28;20034;-84
2021/09/11 12:40:41;;;;;;;30.58;19.08;;;;;;;;;;5013172;28;20249;-84
2021/09/11 12:43:06;;;;;;;31.63;21.52;;;;;;;;;;4996251;28;20033;-84
2021/09/11 12:45:31;;;;;;;25.27;19.40;;;;;;;;;;5014389;28;20385;-84
2021/09/11 12:47:57;;;;;;;27.45;21.55;;;;;;;;;;4994209;28;20026;-84
2021/09/11 12:50:22;;;;;;;28.77;20.27;;;;;;;;;;4995632;28;20033;-84
2021/09/11 12:52:47;;;;;;;22.70;17.90;;;;;;;;;;4996024;28;20026;-84
2021/09/11 12:55:13;;;;;;;24.05;17.88;;;;;;;;;;5013885;28;20057;-84
2021/09/11 12:57:38;;;;;;;28.05;18.40;;;;;;;;;;5012955;28;20032;-84
2021/09/11 13:00:04;;;;;;;26.80;17.53;;;;;;;;;;4994554;28;20045;-84
2021/09/11 13:02:29;;;;;;;22.55;17.83;;;;;;;;;;4996384;28;20026;-84
2021/09/11 13:04:56;;;;;;;27.97;20.70;;;;;;;;;;4996135;28;20029;-84
2021/09/11 13:07:21;;;;;;;25.77;18.40;;;;;;;;;;4995498;28;20032;-84
2021/09/11 13:09:46;;;;;;;29.88;20.45;;;;;;;;;;4994631;28;20463;-83
2021/09/11 13:12:12;;;;;;;26.07;18.83;;;;;;;;;;4995459;28;20030;-83
2021/09/11 13:14:37;;;;;;;28.38;19.27;;;;;;;;;;5013937;28;20026;-83
2021/09/11 13:17:04;;;;;;;28.40;19.95;;;;;;;;;;4995761;28;20022;-83
2021/09/11 13:19:29;;;;;;;25.58;20.50;;;;;;;;;;5013732;28;20026;-84
2021/09/11 13:21:54;;;;;;;30.45;19.88;;;;;;;;;;4995338;28;20500;-83
2021/09/11 13:24:20;;;;;;;20.98;15.80;;;;;;;;;;5013163;28;20026;-84
2021/09/11 13:26:45;;;;;;;24.93;18.13;;;;;;;;;;5013654;28;20428;-83
2021/09/11 13:29:10;;;;;;;23.33;18.60;;;;;;;;;;4991083;28;20154;-83
2021/09/11 13:31:36;;;;;;;28.03;20.57;;;;;;;;;;4991526;28;20026;-84
2021/09/11 13:34:01;;;;;;;28.00;21.15;;;;;;;;;;4991636;28;20026;-83
2021/09/11 13:36:27;;;;;;;33.55;21.83;;;;;;;;;;4993243;28;20026;-83
2021/09/11 13:38:54;;;;;;;25.05;19.10;;;;;;;;;;4992196;28;20036;-84
2021/09/11 13:41:19;;;;;;;27.98;20.98;;;;;;;;;;4991983;28;20053;-83
2021/09/11 13:43:45;;;;;;;27.08;20.80;;;;;;;;;;4992691;28;20034;-83
2021/09/11 13:46:10;;;;;;;26.48;23.15;;;;;;;;;;4994506;28;20023;-83
2021/09/11 13:48:36;;;;;;;33.40;22.88;;;;;;;;;;5000154;28;20022;-84
2021/09/11 13:51:01;;;;;;;31.23;23.05;;;;;;;;;;4997950;28;20064;-84
2021/09/11 13:53:27;;;;;;;32.58;23.80;;;;;;;;;;4999266;28;20447;-84
2021/09/11 13:55:52;;;;;;;41.23;24.73;;;;;;;;;;5001002;28;20107;-84
2021/09/11 13:58:18;;;;;;;32.47;22.08;;;;;;;;;;4997964;28;20335;-84
2021/09/11 14:00:43;;;;;;;36.10;23.48;;;;;;;;;;5000114;28;20078;-84
2021/09/11 14:03:09;;;;;;;33.92;23.80;;;;;;;;;;4999251;28;20021;-83
2021/09/11 14:05:35;;;;;;;32.58;22.73;;;;;;;;;;4998889;28;20029;-84
2021/09/11 14:08:00;;;;;;;30.17;22.08;;;;;;;;;;4997942;28;20573;-84